Time;durP1;ratioP1;P1;durP2;ratioP2;P2;SDS_P1;SDS_P2;PMS_P1;PMS_P2;Temp;Humidity;BMP_temperature;BMP_pressure;BME280_temperature;BME280_humidity;BME280_pressure;Samples;Min_cycle;Max_cycle;Signal;HPM_P1;HPM_P2
2021/03/17 00:01:04;;;;;;;9.40;8.50;;;3.40;99.90;;;4.03;92.11;98329.59;5194053;28;20299;-59
2021/03/17 00:03:36;;;;;;;10.03;9.03;;;3.40;99.90;;;3.97;91.67;98318.91;5187837;28;20216;-58
2021/03/17 00:06:10;;;;;;;8.93;8.20;;;3.30;99.90;;;4.01;92.18;98318.44;5222709;28;20597;-60
2021/03/17 00:08:42;;;;;;;10.77;9.40;;;3.40;99.90;;;3.98;92.40;98315.66;5219461;28;20714;-59
2021/03/17 00:11:14;;;;;;;10.03;9.10;;;3.30;99.90;;;4.04;92.58;98315.31;5205928;28;20202;-59
2021/03/17 00:14:05;;;;;;;10.33;9.27;;;3.40;99.90;;;4.00;92.46;98308.19;5208486;28;20205;-59
2021/03/17 00:16:36;;;;;;;10.77;9.67;;;3.40;99.90;;;4.07;92.57;98313.06;5207727;28;20228;-60
2021/03/17 00:19:09;;;;;;;10.10;9.03;;;3.40;99.90;;;4.10;92.66;98320.03;5208380;28;20700;-59
2021/03/17 00:21:41;;;;;;;9.70;8.70;;;3.40;99.90;;;4.15;92.40;98322.22;5225944;28;20225;-59
2021/03/17 00:24:13;;;;;;;11.47;9.43;;;3.40;99.90;;;4.00;91.75;98311.59;5207069;28;20317;-58
2021/03/17 00:26:45;;;;;;;9.67;8.70;;;3.30;99.90;;;4.01;92.30;98309.97;5208182;28;20224;-59
2021/03/17 00:29:19;;;;;;;9.73;8.83;;;3.40;99.90;;;4.15;92.71;98311.19;5209045;28;20207;-59
2021/03/17 00:31:51;;;;;;;9.80;8.67;;;3.40;99.90;;;4.13;92.44;98312.72;5206428;28;20204;-59
2021/03/17 00:34:23;;;;;;;9.57;8.70;;;3.40;99.90;;;4.27;91.70;98310.66;5221260;28;20659;-58
2021/03/17 00:36:55;;;;;;;9.33;8.43;;;3.40;99.90;;;4.30;90.85;98315.09;5227958;28;20314;-59
2021/03/17 00:39:28;;;;;;;8.67;7.97;;;3.40;99.90;;;4.14;91.48;98304.34;5217977;28;20281;-58
2021/03/17 00:42:00;;;;;;;9.07;8.17;;;3.30;99.90;;;4.06;91.67;98307.09;5207715;28;20315;-57
2021/03/17 00:44:33;;;;;;;9.10;8.30;;;3.30;99.90;;;4.10;91.92;98312.44;5209081;28;20195;-58
2021/03/17 00:47:05;;;;;;;9.03;8.23;;;3.40;99.90;;;4.11;91.96;98304.97;5207273;28;20271;-58
2021/03/17 00:49:37;;;;;;;9.17;8.27;;;3.40;99.90;;;4.12;91.67;98310.91;5226466;28;20413;-59
2021/03/17 00:52:09;;;;;;;9.40;8.60;;;3.30;99.90;;;3.99;92.18;98301.34;5227139;28;20577;-57
2021/03/17 00:54:41;;;;;;;8.33;7.60;;;3.30;99.90;;;3.95;92.58;98302.72;5207715;28;20235;-59
2021/03/17 00:57:13;;;;;;;8.33;7.63;;;3.30;99.90;;;4.00;92.25;98309.06;5207140;28;20576;-59
2021/03/17 00:59:46;;;;;;;9.00;8.10;;;3.20;99.90;;;3.99;92.24;98304.78;5206294;28;20205;-59
2021/03/17 01:02:19;;;;;;;8.90;8.10;;;3.20;99.90;;;4.00;92.10;98296.41;5187278;28;20646;-58
2021/03/17 01:04:51;;;;;;;8.67;7.87;;;3.20;99.90;;;3.92;92.12;98291.44;5187248;28;20201;-58
2021/03/17 01:07:23;;;;;;;8.20;7.50;;;3.20;99.90;;;3.83;92.32;98292.41;5186383;28;20226;-58
2021/03/17 01:09:56;;;;;;;9.10;8.30;;;3.10;99.90;;;3.83;92.46;98292.41;5210301;28;20205;-59
2021/03/17 01:12:28;;;;;;;9.07;8.27;;;3.10;99.90;;;3.83;92.70;98294.94;5207221;28;20256;-58
2021/03/17 01:15:01;;;;;;;8.53;7.83;;;3.10;99.90;;;3.79;92.79;98289.47;5207932;28;20202;-59
2021/03/17 01:17:33;;;;;;;9.07;8.27;;;3.10;99.90;;;3.85;92.77;98295.06;5207073;28;20253;-59
2021/03/17 01:20:07;;;;;;;9.33;8.43;;;3.10;99.90;;;3.84;92.77;98293.28;5187602;28;20251;-59
2021/03/17 01:22:39;;;;;;;9.57;8.77;;;3.10;99.90;;;3.74;93.00;98285.63;5188073;28;20611;-56
2021/03/17 01:25:14;;;;;;;10.00;9.00;;;3.00;99.90;;;3.71;92.99;98287.88;5204958;28;20563;-59
2021/03/17 01:27:46;;;;;;;9.53;8.63;;;3.00;99.90;;;3.80;93.27;98282.00;5206776;28;20242;-57
2021/03/17 01:30:24;;;;;;;9.70;8.80;;;3.00;99.90;;;3.86;92.73;98271.53;5206868;28;20206;-60
2021/03/17 01:32:56;;;;;;;9.50;8.70;;;3.00;99.90;;;3.78;92.84;98273.41;5198359;28;20233;-59
2021/03/17 01:35:28;;;;;;;10.27;9.37;;;3.00;99.90;;;3.82;93.02;98272.03;5206666;28;20642;-58
2021/03/17 01:38:01;;;;;;;10.40;9.47;;;3.00;99.90;;;3.81;92.87;98267.75;5206911;28;20252;-59
2021/03/17 01:40:36;;;;;;;10.47;9.60;;;3.00;99.90;;;3.78;93.28;98267.47;5204267;28;20198;-59
2021/03/17 01:43:09;;;;;;;9.77;8.90;;;3.00;99.90;;;3.76;93.40;98266.44;5206645;28;20316;-60
2021/03/17 01:45:43;;;;;;;9.87;9.07;;;3.00;99.90;;;3.69;93.68;98264.09;5206464;28;20303;-59
2021/03/17 01:48:16;;;;;;;10.30;9.50;;;2.90;99.90;;;3.71;93.70;98262.59;5205629;28;20316;-60
2021/03/17 01:50:51;;;;;;;10.23;9.30;;;2.90;99.90;;;3.64;94.00;98267.88;5214038;28;20202;-57
2021/03/17 01:53:26;;;;;;;10.27;9.37;;;2.90;99.90;;;3.55;93.87;98268.81;5221662;28;20195;-57
2021/03/17 01:55:59;;;;;;;10.80;9.87;;;2.90;99.90;;;3.50;94.36;98259.91;5206093;28;20210;-58
2021/03/17 01:58:34;;;;;;;11.03;10.03;;;2.80;99.90;;;3.45;94.17;98265.31;5207128;28;20659;-59
2021/03/17 02:01:07;;;;;;;11.10;10.10;;;2.80;99.90;;;3.45;94.03;98266.19;5206335;28;20199;-59
2021/03/17 02:03:39;;;;;;;10.80;9.80;;;2.80;99.90;;;3.35;94.42;98268.66;5206729;28;20296;-59
2021/03/17 02:06:11;;;;;;;11.00;10.07;;;2.80;99.90;;;3.20;93.63;98267.22;5227049;28;20253;-54
2021/03/17 02:08:45;;;;;;;11.80;10.77;;;2.70;99.90;;;3.05;93.21;98262.53;5206442;28;20205;-59
2021/03/17 02:11:17;;;;;;;11.87;10.80;;;2.60;99.90;;;2.90;93.19;98273.75;5198014;28;20219;-58
2021/03/17 02:14:25;;;;;;;12.30;11.10;;;2.50;99.90;;;2.73;93.56;98266.25;5221747;28;20203;-58
2021/03/17 02:17:05;;;;;;;11.40;10.33;;;2.30;99.90;;;2.70;95.27;98266.84;5206191;28;20229;-59
2021/03/17 02:20:28;;;;;;;12.30;11.10;;;2.30;99.90;;;2.81;96.68;98262.81;5205520;28;20204;-58
2021/03/17 02:23:11;;;;;;;12.70;11.40;;;2.30;99.90;;;2.83;96.95;98268.88;5206121;28;20316;-59
2021/03/17 02:26:10;;;;;;;12.10;11.00;;;2.30;99.90;;;2.89;97.35;98269.44;5215843;28;20201;-59
2021/03/17 02:29:00;;;;;;;12.00;10.80;;;2.30;99.90;;;2.73;96.49;98271.31;5226022;28;20204;-59
2021/03/17 02:32:05;;;;;;;12.27;11.17;;;2.30;99.90;;;2.57;95.26;98271.47;5191546;28;20202;-60
2021/03/17 02:34:43;;;;;;;11.33;10.23;;;2.20;99.90;;;2.39;94.49;98263.06;5193994;28;20196;-58
2021/03/17 02:37:19;;;;;;;11.37;10.30;;;2.00;99.90;;;2.30;94.51;98262.22;5205414;28;20655;-60
2021/03/17 02:39:58;;;;;;;11.13;10.13;;;2.00;99.90;;;2.27;94.64;98256.88;5209993;28;20287;-59
2021/03/17 02:42:35;;;;;;;11.03;9.80;;;1.90;99.90;;;2.28;95.42;98258.66;5219291;28;20302;-57
2021/03/17 02:45:10;;;;;;;12.33;11.07;;;1.90;99.90;;;2.31;95.89;98253.88;5206620;28;20709;-59
2021/03/17 02:47:50;;;;;;;11.70;10.50;;;1.90;99.90;;;2.39;97.00;98253.00;5219951;28;20227;-59
2021/03/17 02:50:24;;;;;;;13.73;11.27;;;1.90;99.90;;;2.41;97.65;98251.50;5219543;28;20200;-60
2021/03/17 02:52:59;;;;;;;11.77;10.63;;;1.80;99.90;;;2.39;97.37;98258.91;5202505;28;20206;-60
2021/03/17 02:55:35;;;;;;;12.10;10.90;;;1.90;99.90;;;2.38;98.80;98256.25;5214312;28;20217;-59
2021/03/17 02:58:08;;;;;;;10.53;9.50;;;1.90;99.90;;;2.43;98.68;98260.09;5225626;28;20236;-60
2021/03/17 03:00:40;;;;;;;11.50;10.40;;;1.90;99.90;;;2.47;99.28;98250.44;5209216;28;20287;-58
2021/03/17 03:03:15;;;;;;;12.60;11.40;;;1.90;99.90;;;2.55;100.00;98248.66;5217055;28;20246;-60
2021/03/17 03:05:49;;;;;;;12.73;11.43;;;1.90;99.90;;;2.64;100.00;98257.06;5223970;28;20292;-60
2021/03/17 03:08:23;;;;;;;11.90;10.80;;;2.00;99.90;;;2.69;100.00;98252.47;5223920;28;20296;-58
2021/03/17 03:10:57;;;;;;;12.40;11.17;;;2.10;99.90;;;2.73;100.00;98256.16;5186709;28;20571;-59
2021/03/17 03:13:29;;;;;;;12.90;11.60;;;2.10;99.90;;;2.80;100.00;98258.50;5198932;28;20654;-58
2021/03/17 03:16:16;;;;;;;12.33;11.13;;;2.20;99.90;;;2.79;100.00;98266.81;5190036;28;20657;-60
2021/03/17 03:18:51;;;;;;;12.50;11.30;;;2.20;99.90;;;2.78;100.00;98260.88;5208763;28;20617;-58
2021/03/17 03:21:26;;;;;;;13.20;11.83;;;2.10;99.90;;;2.82;100.00;98257.91;5189812;28;20289;-58
2021/03/17 03:24:00;;;;;;;13.57;12.37;;;2.20;99.90;;;2.87;100.00;98260.84;5188767;28;20203;-59
2021/03/17 03:26:33;;;;;;;12.93;11.70;;;2.20;99.90;;;2.89;100.00;98264.38;5188566;28;20224;-59
2021/03/17 03:29:06;;;;;;;12.20;11.10;;;2.20;99.90;;;2.92;100.00;98270.63;5189054;28;20674;-58
2021/03/17 03:31:38;;;;;;;13.50;12.13;;;2.30;99.90;;;2.93;100.00;98259.78;5219386;23;20596;-61
2021/03/17 03:34:10;;;;;;;13.27;11.90;;;2.30;99.90;;;2.96;100.00;98256.66;5229132;28;20197;-61
2021/03/17 03:36:45;;;;;;;13.10;11.80;;;2.30;99.90;;;2.93;100.00;98256.38;5229188;28;20206;-62
2021/03/17 03:39:17;;;;;;;12.10;11.00;;;2.30;99.90;;;2.82;100.00;98257.00;5228807;28;20197;-61
2021/03/17 03:41:50;;;;;;;12.23;11.07;;;2.20;99.90;;;2.82;100.00;98252.84;5229266;28;20305;-61
2021/03/17 03:44:22;;;;;;;11.87;10.77;;;2.20;99.90;;;2.79;100.00;98261.78;5228873;28;20198;-61
2021/03/17 03:46:55;;;;;;;12.67;11.47;;;2.10;99.90;;;2.77;100.00;98268.31;5228857;28;20200;-61
2021/03/17 03:49:27;;;;;;;12.30;11.10;;;2.00;99.90;;;2.77;100.00;98255.69;5228901;28;20210;-61
2021/03/17 03:52:06;;;;;;;12.90;11.57;;;2.00;99.90;;;2.79;100.00;98266.81;5229179;28;20270;-61
2021/03/17 03:54:42;;;;;;;12.40;11.13;;;2.10;99.90;;;2.86;100.00;98266.63;5228856;28;20233;-61
2021/03/17 03:57:22;;;;;;;13.73;12.23;;;2.10;99.90;;;2.78;100.00;98270.09;5228980;28;20203;-59
2021/03/17 04:00:01;;;;;;;12.93;11.73;;;2.00;99.90;;;2.71;100.00;98263.56;5228958;28;20240;-61
2021/03/17 04:02:46;;;;;;;12.23;11.03;;;2.00;99.90;;;2.70;100.00;98272.78;5228887;28;20231;-61
2021/03/17 04:05:26;;;;;;;12.83;11.53;;;2.10;99.90;;;2.70;100.00;98260.16;5229202;28;20303;-60
2021/03/17 04:08:06;;;;;;;11.13;10.13;;;2.10;99.90;;;2.78;100.00;98260.00;5229039;28;20208;-61
2021/03/17 04:10:39;;;;;;;12.43;11.20;;;2.20;99.90;;;2.83;100.00;98263.81;5228383;28;20208;-61
2021/03/17 04:13:13;;;;;;;11.60;10.60;;;2.20;99.90;;;2.91;100.00;98253.69;5228449;28;20211;-61
2021/03/17 04:15:46;;;;;;;12.30;10.93;;;2.20;99.90;;;2.93;100.00;98256.38;5228348;28;20201;-61
2021/03/17 04:18:21;;;;;;;13.00;11.70;;;2.20;99.90;;;2.96;100.00;98261.69;5228311;28;20207;-62
2021/03/17 04:20:57;;;;;;;11.97;10.77;;;2.20;99.90;;;2.95;100.00;98254.88;5228577;28;20240;-61
2021/03/17 04:23:33;;;;;;;11.67;10.57;;;2.20;99.90;;;2.81;100.00;98267.88;5227965;28;20239;-60
2021/03/17 04:26:06;;;;;;;10.93;9.93;;;2.10;99.90;;;2.70;100.00;98277.81;5218341;28;20206;-61
2021/03/17 04:28:40;;;;;;;11.10;10.13;;;2.00;99.90;;;2.65;100.00;98268.94;5228035;28;20574;-61
2021/03/17 04:31:14;;;;;;;12.00;10.77;;;2.00;99.90;;;2.63;100.00;98285.59;5228171;28;20235;-59
2021/03/17 04:33:47;;;;;;;10.50;9.40;;;1.90;99.90;;;2.64;100.00;98286.47;5228172;28;20206;-61
2021/03/17 04:36:20;;;;;;;11.97;10.77;;;1.90;99.90;;;2.67;100.00;98285.13;5227786;28;20197;-61
2021/03/17 04:38:53;;;;;;;11.03;10.03;;;1.90;99.90;;;2.73;100.00;98281.41;5227423;28;20724;-59
2021/03/17 04:41:26;;;;;;;11.27;10.10;;;2.00;99.90;;;2.83;100.00;98284.00;5228111;28;20217;-59
2021/03/17 04:43:58;;;;;;;11.23;10.23;;;2.00;99.90;;;2.88;100.00;98276.13;5227861;28;20225;-61
2021/03/17 04:46:31;;;;;;;12.23;11.00;;;1.90;99.90;;;2.91;100.00;98270.47;5227814;28;20714;-61
2021/03/17 04:49:04;;;;;;;12.77;11.57;;;2.00;99.90;;;2.87;100.00;98261.75;5227873;28;20565;-60
2021/03/17 04:51:38;;;;;;;14.40;13.07;;;2.00;99.90;;;2.86;100.00;98267.53;5227346;28;20213;-61
2021/03/17 04:54:11;;;;;;;13.83;12.53;;;2.00;99.90;;;2.79;100.00;98260.13;5227793;28;20298;-61
2021/03/17 04:56:45;;;;;;;14.60;13.20;;;2.00;99.90;;;2.78;100.00;98270.09;5227560;28;20211;-60
2021/03/17 04:59:21;;;;;;;13.80;12.37;;;2.10;99.90;;;2.75;100.00;98274.84;5227830;28;20708;-61
2021/03/17 05:01:53;;;;;;;13.43;12.03;;;2.00;99.90;;;2.80;100.00;98268.59;5221726;28;20218;-61
2021/03/17 05:04:27;;;;;;;13.07;11.87;;;2.00;99.90;;;2.79;100.00;98282.84;5227404;28;20587;-61
2021/03/17 05:07:01;;;;;;;13.43;12.03;;;2.10;99.90;;;2.78;100.00;98280.19;5227306;28;20300;-61
2021/03/17 05:09:36;;;;;;;17.40;14.40;;;2.10;99.90;;;2.81;100.00;98285.53;5227349;28;20193;-61
2021/03/17 05:12:10;;;;;;;15.60;13.80;;;2.10;99.90;;;2.79;100.00;98282.84;5227283;28;20580;-61
2021/03/17 05:14:43;;;;;;;15.37;13.03;;;2.10;99.90;;;2.80;100.00;98279.56;5227174;28;20635;-58
2021/03/17 05:17:16;;;;;;;14.93;13.33;;;2.10;99.90;;;2.89;100.00;98282.06;5226614;28;20205;-60
2021/03/17 05:19:48;;;;;;;15.47;13.17;;;2.20;99.90;;;2.87;100.00;98292.03;5227038;28;20239;-60
2021/03/17 05:22:21;;;;;;;15.50;13.73;;;2.20;99.90;;;2.97;100.00;98290.34;5227054;28;20239;-61
2021/03/17 05:24:55;;;;;;;14.80;13.20;;;2.20;99.90;;;3.00;100.00;98290.63;5226553;28;20204;-61
2021/03/17 05:27:29;;;;;;;15.30;12.50;;;2.20;99.90;;;2.97;100.00;98298.81;5226634;28;20656;-61
2021/03/17 05:30:05;;;;;;;13.50;11.50;;;2.10;99.90;;;2.90;100.00;98301.53;5226893;28;20227;-61
2021/03/17 05:32:40;;;;;;;14.00;12.57;;;2.10;99.90;;;2.88;100.00;98303.91;5226323;28;20216;-60
2021/03/17 05:35:13;;;;;;;14.23;12.57;;;2.10;99.90;;;2.85;100.00;98297.69;5226829;28;20212;-61
2021/03/17 05:37:46;;;;;;;14.47;12.97;;;2.10;99.90;;;2.86;100.00;98299.44;5221578;28;20206;-61
2021/03/17 05:40:19;;;;;;;13.80;12.40;;;2.10;99.90;;;2.89;100.00;98304.78;5226145;28;20228;-59
2021/03/17 05:42:52;;;;;;;14.00;12.60;;;2.10;99.90;;;2.88;100.00;98308.06;5225306;28;20259;-60
2021/03/17 05:45:25;;;;;;;13.20;11.90;;;2.10;99.90;;;2.89;100.00;98307.31;5225792;28;20204;-61
2021/03/17 05:48:12;;;;;;;13.50;12.10;;;2.20;99.90;;;2.81;100.00;98316.69;5216562;28;20786;-61
2021/03/17 05:50:44;;;;;;;14.57;13.07;;;2.20;99.90;;;2.74;100.00;98315.97;5212577;28;20199;-60
2021/03/17 05:53:17;;;;;;;14.80;12.90;;;2.10;99.90;;;2.69;100.00;98318.09;5220214;28;20195;-62
2021/03/17 05:55:49;;;;;;;16.33;14.27;;;2.10;99.90;;;2.71;100.00;98321.63;5223568;28;20208;-62
2021/03/17 05:58:23;;;;;;;14.80;13.13;;;2.10;99.90;;;2.84;100.00;98326.19;5220337;28;20196;-62
2021/03/17 06:00:55;;;;;;;15.03;12.67;;;2.10;99.90;;;2.88;100.00;98328.25;5215172;28;20231;-61
2021/03/17 06:03:31;;;;;;;15.53;13.93;;;2.20;99.90;;;2.88;99.60;98318.16;5223589;28;20591;-61
2021/03/17 06:06:05;;;;;;;15.47;13.00;;;2.10;99.90;;;2.79;100.00;98322.34;5216877;28;20291;-61
2021/03/17 06:08:40;;;;;;;14.77;13.17;;;2.10;99.90;;;2.80;100.00;98327.53;5214300;28;20227;-62
2021/03/17 06:11:14;;;;;;;15.63;13.63;;;2.10;99.90;;;2.74;100.00;98329.47;5225552;28;20221;-61
2021/03/17 06:13:49;;;;;;;16.97;15.17;;;2.10;99.90;;;2.77;100.00;98336.44;5219458;28;20722;-61
2021/03/17 06:16:24;;;;;;;17.30;15.37;;;2.10;99.90;;;2.70;100.00;98333.34;5212568;28;20204;-60
2021/03/17 06:18:58;;;;;;;15.90;14.20;;;2.00;99.90;;;2.70;100.00;98340.03;5219799;28;20623;-62
2021/03/17 06:21:31;;;;;;;17.57;15.50;;;2.00;99.90;;;2.75;100.00;98343.88;5224543;28;20225;-60
2021/03/17 06:24:04;;;;;;;16.60;14.10;;;2.10;99.90;;;2.81;100.00;98341.06;5209177;28;20217;-61
2021/03/17 06:26:38;;;;;;;19.37;15.33;;;2.10;99.90;;;2.79;100.00;98337.50;5210323;28;20287;-61
2021/03/17 06:29:10;;;;;;;18.63;14.77;;;2.10;99.90;;;2.73;100.00;98352.06;5206922;28;20195;-61
2021/03/17 06:31:43;;;;;;;18.50;15.70;;;2.00;99.90;;;2.83;100.00;98347.13;5212378;28;20225;-61
2021/03/17 06:34:16;;;;;;;17.80;15.37;;;2.10;99.90;;;2.89;100.00;98350.22;5215046;28;20186;-60
2021/03/17 06:36:49;;;;;;;19.27;15.60;;;2.30;99.90;;;3.01;100.00;98356.44;5225496;28;20375;-61
2021/03/17 06:39:22;;;;;;;21.20;16.63;;;2.30;99.90;;;3.09;100.00;98350.47;5214267;28;20201;-61
2021/03/17 06:41:55;;;;;;;18.17;15.97;;;2.30;99.90;;;3.14;100.00;98349.25;5209581;28;20228;-61
2021/03/17 06:44:29;;;;;;;20.53;15.97;;;2.40;99.90;;;3.16;100.00;98357.88;5205147;28;20597;-61
2021/03/17 06:47:17;;;;;;;17.80;15.40;;;2.50;99.90;;;3.19;99.97;98358.91;5206101;28;20296;-62
2021/03/17 06:49:53;;;;;;;20.60;16.07;;;2.40;99.90;;;3.14;100.00;98358.47;5207580;28;20232;-61
2021/03/17 06:52:34;;;;;;;17.70;15.63;;;2.40;99.90;;;3.14;100.00;98351.78;5230362;28;20262;-60
2021/03/17 06:55:13;;;;;;;18.60;15.30;;;2.40;99.90;;;3.13;100.00;98366.78;5223899;28;20192;-62
2021/03/17 06:57:47;;;;;;;17.10;14.83;;;2.40;99.90;;;3.15;100.00;98366.19;5221982;28;20196;-61
2021/03/17 07:00:33;;;;;;;18.67;15.33;;;2.50;99.90;;;3.20;100.00;98364.09;5225442;28;20242;-61
2021/03/17 07:03:07;;;;;;;18.43;15.80;;;2.50;99.90;;;3.28;100.00;98372.38;5226269;28;20664;-63
2021/03/17 07:05:42;;;;;;;18.00;15.43;;;2.50;99.90;;;3.36;100.00;98371.47;5212974;28;20289;-61
2021/03/17 07:08:16;;;;;;;19.57;16.17;;;2.60;99.90;;;3.43;100.00;98367.84;5214268;28;20199;-61
2021/03/17 07:11:03;;;;;;;19.13;16.40;;;2.70;99.90;;;3.56;100.00;98361.56;5219052;28;20255;-61
2021/03/17 07:13:36;;;;;;;19.57;16.50;;;2.70;99.90;;;3.64;100.00;98368.97;5209984;28;20655;-61
2021/03/17 07:16:09;;;;;;;20.57;16.67;;;2.80;99.90;;;3.80;100.00;98362.00;5213128;28;20735;-62
2021/03/17 07:18:41;;;;;;;22.47;17.03;;;2.90;99.90;;;3.94;100.00;98371.75;5228952;28;20569;-61
2021/03/17 07:21:13;;;;;;;22.50;17.57;;;3.00;99.90;;;4.04;100.00;98366.78;5222187;28;20759;-63
2021/03/17 07:23:45;;;;;;;20.20;16.17;;;3.00;99.90;;;4.14;99.82;98370.13;5223825;28;20236;-62
2021/03/17 07:26:20;;;;;;;21.97;17.10;;;3.10;99.90;;;4.26;99.08;98361.09;5231000;28;20207;-62
2021/03/17 07:28:59;;;;;;;18.93;16.00;;;3.10;99.90;;;4.39;98.34;98363.97;5228978;28;20644;-62
2021/03/17 07:31:34;;;;;;;19.67;15.97;;;3.20;99.90;;;4.51;97.62;98362.53;5233710;28;20346;-62
2021/03/17 07:34:22;;;;;;;20.00;16.90;;;3.40;99.90;;;4.73;97.39;98364.41;5220803;28;20198;-62
2021/03/17 07:36:57;;;;;;;21.30;15.80;;;3.50;99.90;;;4.81;97.27;98371.06;5223704;28;20565;-61
2021/03/17 07:39:32;;;;;;;21.13;17.27;;;3.70;99.90;;;4.93;96.63;98367.03;5230314;28;20238;-62
2021/03/17 07:42:07;;;;;;;19.27;16.63;;;3.70;99.90;;;5.03;96.53;98367.84;5218961;28;20216;-61
2021/03/17 07:44:42;;;;;;;21.43;17.93;;;3.80;99.90;;;5.13;95.62;98375.47;5219336;28;20231;-62
2021/03/17 07:47:14;;;;;;;20.77;17.97;;;3.80;99.90;;;5.10;95.59;98368.50;5211059;28;20567;-62
2021/03/17 07:49:53;;;;;;;21.23;17.63;;;3.90;99.90;;;5.19;95.36;98376.88;5222307;28;20201;-62
2021/03/17 07:52:30;;;;;;;21.23;18.10;;;3.90;99.90;;;5.35;95.95;98386.72;5229357;28;20219;-62
2021/03/17 07:55:06;;;;;;;22.30;17.83;;;4.20;99.90;;;5.61;95.10;98385.50;5225104;28;20201;-62
2021/03/17 07:57:40;;;;;;;22.80;18.17;;;4.30;99.90;;;5.66;94.46;98384.22;5228605;28;20268;-62
2021/03/17 08:00:15;;;;;;;21.23;18.77;;;4.40;99.90;;;5.95;93.58;98385.81;5228523;28;20736;-62
2021/03/17 08:02:49;;;;;;;22.37;18.33;;;4.50;99.90;;;6.08;93.45;98378.44;5207563;28;20583;-61
2021/03/17 08:05:22;;;;;;;23.77;18.97;;;4.70;99.90;;;6.58;92.92;98388.41;5215655;28;20212;-62
2021/03/17 08:07:54;;;;;;;22.50;19.20;;;5.20;99.90;;;6.87;91.34;98381.50;5221903;28;20197;-62
2021/03/17 08:10:26;;;;;;;20.33;17.43;;;5.60;99.90;;;7.13;91.70;98387.75;5222972;28;20201;-61
2021/03/17 08:12:59;;;;;;;18.13;16.27;;;6.00;99.90;;;7.27;86.62;98382.09;5215767;28;20689;-60
2021/03/17 08:15:33;;;;;;;16.83;15.03;;;6.10;99.90;;;7.06;84.74;98380.41;5226861;28;20208;-60
2021/03/17 08:18:42;;;;;;;17.53;15.73;;;5.80;99.90;;;7.19;87.99;98378.06;5223700;28;20193;-61
2021/03/17 08:21:42;;;;;;;16.43;14.73;;;6.10;99.90;;;7.33;83.60;98386.78;5224860;28;20746;-58
2021/03/17 08:24:41;;;;;;;15.90;14.30;;;6.00;99.90;;;7.41;85.52;98372.97;5224013;28;20221;-60
2021/03/17 08:27:23;;;;;;;17.13;15.33;;;6.10;99.90;;;7.26;85.32;98371.78;5226389;28;20296;-61
2021/03/17 08:30:12;;;;;;;16.47;13.67;;;6.20;99.90;;;7.00;82.81;98373.19;5218458;28;20200;-61
2021/03/17 08:32:57;;;;;;;16.17;14.40;;;5.90;99.90;;;6.94;86.93;98372.69;5216150;28;20713;-60
2021/03/17 08:36:04;;;;;;;18.23;16.33;;;5.70;99.90;;;6.54;84.68;98366.97;5213037;28;20736;-61
2021/03/17 08:38:52;;;;;;;19.13;15.90;;;5.50;99.90;;;6.37;86.69;98364.72;5215707;28;20281;-60
2021/03/17 08:41:53;;;;;;;19.33;17.23;;;5.40;99.90;;;6.21;87.81;98371.09;5222462;28;20227;-62
2021/03/17 08:44:27;;;;;;;15.63;13.90;;;5.40;99.90;;;6.25;87.58;98374.78;5224622;28;20212;-62
2021/03/17 08:47:15;;;;;;;14.73;12.27;;;5.40;99.90;;;6.13;85.19;98372.13;5214240;28;20279;-60
2021/03/17 08:49:51;;;;;;;13.93;11.70;;;5.30;99.90;;;6.13;86.47;98372.13;5215779;28;20193;-60
2021/03/17 08:52:38;;;;;;;12.67;10.93;;;5.30;99.90;;;6.09;86.14;98370.97;5215232;28;20303;-60
2021/03/17 08:55:13;;;;;;;12.47;10.60;;;5.30;99.90;;;6.16;86.04;98374.91;5219092;28;20221;-59
2021/03/17 08:57:53;;;;;;;11.07;9.63;;;5.30;99.90;;;6.15;82.64;98369.69;5218294;28;20240;-61
2021/03/17 09:00:55;;;;;;;11.50;10.20;;;5.40;99.90;;;6.51;87.15;98371.81;5225847;28;20208;-62
2021/03/17 09:03:50;;;;;;;11.33;9.63;;;5.70;99.90;;;6.74;84.92;98372.00;5214259;28;20220;-61
2021/03/17 09:06:27;;;;;;;11.93;9.73;;;6.00;99.90;;;6.79;79.35;98368.94;5216029;28;20240;-60
2021/03/17 09:09:04;;;;;;;9.97;9.00;;;6.20;99.90;;;6.72;77.91;98367.56;5219020;28;20240;-59
2021/03/17 09:11:58;;;;;;;11.87;9.80;;;6.00;99.90;;;6.92;83.15;98356.44;5224521;28;20223;-60
2021/03/17 09:14:38;;;;;;;10.03;9.03;;;6.20;99.90;;;6.95;80.31;98361.75;5211857;28;20205;-61
2021/03/17 09:17:27;;;;;;;9.47;8.57;;;6.30;99.90;;;7.21;83.37;98352.00;5207641;28;20197;-59
2021/03/17 09:20:25;;;;;;;8.93;7.53;;;6.50;99.90;;;7.15;74.40;98359.16;5223601;28;20294;-60
2021/03/17 09:23:07;;;;;;;10.43;8.40;;;6.70;99.90;;;7.13;74.33;98354.72;5224365;28;20221;-62
2021/03/17 09:25:46;;;;;;;9.67;8.67;;;6.80;99.90;;;7.39;79.42;98346.56;5224460;28;20576;-61
2021/03/17 09:28:23;;;;;;;8.13;6.77;;;7.00;99.90;;;7.44;70.05;98351.25;5219412;28;20557;-59
2021/03/17 09:30:58;;;;;;;8.57;6.83;;;7.10;99.90;;;7.52;79.15;98364.53;5224748;28;20224;-61
2021/03/17 09:33:33;;;;;;;7.03;6.43;;;6.90;99.90;;;7.45;71.07;98365.72;5221948;28;20195;-60
2021/03/17 09:36:09;;;;;;;6.97;5.57;;;7.00;99.90;;;7.57;71.44;98363.22;5204529;28;20701;-61
2021/03/17 09:38:44;;;;;;;6.00;5.40;;;7.00;99.90;;;7.65;70.53;98357.06;5219160;28;20660;-60
2021/03/17 09:41:19;;;;;;;7.80;5.87;;;7.00;99.90;;;7.88;75.61;98365.56;5217083;28;20236;-60
2021/03/17 09:44:09;;;;;;;4.70;4.30;;;7.10;99.90;;;7.83;67.86;98356.69;5216768;28;20312;-60
2021/03/17 09:46:43;;;;;;;7.20;4.60;;;7.10;99.90;;;7.86;69.22;98346.75;5217398;28;20207;-61
2021/03/17 09:49:20;;;;;;;5.23;4.67;;;7.00;99.90;;;7.85;75.18;98348.41;5212729;28;20209;-59
2021/03/17 09:51:54;;;;;;;5.80;4.93;;;7.00;99.90;;;7.78;73.10;98347.81;5219707;28;20228;-59
2021/03/17 09:54:30;;;;;;;5.77;4.93;;;6.90;99.90;;;7.76;74.32;98357.91;5224444;28;20564;-60
2021/03/17 09:57:05;;;;;;;5.70;4.53;;;6.90;99.90;;;7.55;69.22;98364.75;5210093;28;20205;-60
2021/03/17 09:59:45;;;;;;;5.07;4.57;;;6.80;99.90;;;7.53;73.99;98356.13;5213298;28;20193;-60
2021/03/17 10:02:21;;;;;;;6.57;4.63;;;6.70;99.90;;;7.44;70.46;98357.97;5220293;28;20233;-61
2021/03/17 10:04:57;;;;;;;4.47;3.93;;;6.60;99.90;;;7.41;74.92;98370.44;5220375;28;20213;-61
2021/03/17 10:07:32;;;;;;;3.77;3.47;;;6.50;99.90;;;7.26;69.90;98361.63;5206345;28;20293;-60
2021/03/17 10:10:08;;;;;;;4.93;3.53;;;6.40;99.90;;;7.33;76.46;98363.91;5216324;28;20197;-58
2021/03/17 10:12:43;;;;;;;3.97;3.67;;;6.50;99.90;;;7.23;71.91;98365.69;5221985;28;20221;-61
2021/03/17 10:15:18;;;;;;;3.70;3.40;;;6.30;99.90;;;7.09;67.89;98366.28;5224732;28;20564;-60
2021/03/17 10:17:53;;;;;;;3.87;3.50;;;6.20;99.90;;;7.02;73.51;98366.56;5221457;28;20740;-60
2021/03/17 10:20:28;;;;;;;4.17;3.47;;;6.20;99.90;;;6.93;71.73;98370.94;5217974;28;20193;-59
2021/03/17 10:23:03;;;;;;;4.37;3.97;;;6.00;99.90;;;6.83;74.52;98370.97;5218372;28;20217;-59
2021/03/17 10:25:36;;;;;;;4.60;4.20;;;5.90;99.90;;;6.83;78.68;98369.28;5208069;28;20208;-58
2021/03/17 10:28:09;;;;;;;5.07;4.47;;;5.90;99.90;;;6.69;72.17;98362.22;5219601;28;20189;-60
2021/03/17 10:30:43;;;;;;;6.43;5.10;;;6.00;99.90;;;6.77;75.74;98371.34;5219175;28;20453;-59
2021/03/17 10:33:21;;;;;;;5.07;4.67;;;5.90;99.90;;;6.69;74.21;98363.13;5216826;28;20247;-61
2021/03/17 10:35:54;;;;;;;7.03;4.80;;;5.90;99.90;;;6.69;73.17;98362.22;5205251;28;20193;-59
2021/03/17 10:38:27;;;;;;;4.87;4.47;;;5.90;99.90;;;6.76;73.48;98370.47;5206847;28;20297;-58
2021/03/17 10:43:40;;;;;;;5.03;4.53;;;6.10;99.90;;;6.91;71.72;98359.75;5177772;28;20294;-54
2021/03/17 10:46:12;;;;;;;4.93;4.43;;;6.20;99.90;;;7.00;74.59;98355.38;5183776;28;20274;-57
2021/03/17 10:48:45;;;;;;;4.90;4.50;;;6.10;99.90;;;6.91;70.97;98352.13;5170613;28;20581;-57
2021/03/17 10:51:17;;;;;;;4.87;4.20;;;6.10;99.90;;;6.72;64.44;98348.16;5180900;28;20226;-56
2021/03/17 10:53:49;;;;;;;4.83;4.43;;;6.10;99.90;;;6.92;73.38;98346.28;5148473;28;20593;-57
2021/03/17 10:56:23;;;;;;;6.87;5.10;;;6.20;99.90;;;7.10;70.03;98347.72;5164148;28;20203;-57
2021/03/17 10:58:56;;;;;;;4.97;3.90;;;6.40;99.90;;;7.40;73.65;98350.88;5149338;28;20226;-53
2021/03/17 11:01:30;;;;;;;8.53;7.13;;;6.80;99.90;;;7.73;64.51;98346.59;5163497;28;20246;-55